Time;durP1;ratioP1;P1;durP2;ratioP2;P2;SDS_P1;SDS_P2;PMS_P1;PMS_P2;Temp;Humidity;BMP_temperature;BMP_pressure;BME280_temperature;BME280_humidity;BME280_pressure;Samples;Min_cycle;Max_cycle;Signal;HPM_P1;HPM_P2
2022/07/25 00:00:47;;;;;;;9.55;6.00;;;23.60;91.50;;;;;;5055296;28;20037;-53
2022/07/25 00:03:12;;;;;;;8.50;6.82;;;23.60;91.10;;;;;;5053017;28;20547;-46
2022/07/25 00:05:38;;;;;;;6.60;6.00;;;23.70;90.80;;;;;;5054848;28;20083;-50
2022/07/25 00:08:04;;;;;;;7.60;6.13;;;23.70;90.60;;;;;;5054141;28;20037;-51
2022/07/25 00:10:30;;;;;;;6.43;5.82;;;23.70;91.20;;;;;;5054589;28;20108;-48
2022/07/25 00:12:55;;;;;;;9.23;6.15;;;23.70;91.80;;;;;;5054861;28;20111;-46
2022/07/25 00:15:21;;;;;;;7.25;6.03;;;23.70;92.60;;;;;;5053550;28;20021;-50
2022/07/25 00:17:46;;;;;;;7.95;6.13;;;23.70;92.70;;;;;;5053885;28;20051;-47
2022/07/25 00:20:12;;;;;;;8.95;6.13;;;23.60;92.90;;;;;;5054447;28;20025;-53
2022/07/25 00:22:38;;;;;;;7.30;6.03;;;23.60;93.20;;;;;;5054466;28;20040;-44
2022/07/25 00:25:03;;;;;;;6.78;6.00;;;23.40;93.40;;;;;;5054474;28;20104;-48
2022/07/25 00:27:29;;;;;;;9.23;6.40;;;23.40;93.70;;;;;;5053515;28;20029;-46
2022/07/25 00:29:54;;;;;;;7.45;6.07;;;23.30;93.50;;;;;;5054890;28;20510;-48
2022/07/25 00:32:20;;;;;;;7.22;6.38;;;23.20;93.70;;;;;;5053477;28;20021;-46
2022/07/25 00:34:46;;;;;;;10.10;7.25;;;23.10;93.30;;;;;;5054519;28;20100;-45
2022/07/25 00:37:11;;;;;;;11.55;7.07;;;22.90;94.10;;;;;;5053903;28;20041;-47
2022/07/25 00:39:37;;;;;;;6.65;6.05;;;22.90;94.50;;;;;;5054977;28;20037;-47
2022/07/25 00:42:02;;;;;;;9.82;6.47;;;22.90;94.40;;;;;;5055855;28;20284;-44
2022/07/25 00:44:30;;;;;;;7.18;6.47;;;22.80;94.50;;;;;;5053132;28;20106;-46
2022/07/25 00:46:56;;;;;;;8.43;6.65;;;22.90;94.50;;;;;;5055892;28;20514;-48
2022/07/25 00:49:22;;;;;;;7.93;7.13;;;22.90;94.30;;;;;;5054404;28;20044;-52
2022/07/25 00:51:48;;;;;;;11.73;7.47;;;23.00;93.40;;;;;;5054369;28;20404;-49
2022/07/25 00:54:14;;;;;;;10.32;6.82;;;23.00;93.10;;;;;;5053877;28;20024;-46
2022/07/25 00:56:40;;;;;;;8.35;7.55;;;23.10;93.10;;;;;;5052312;28;20099;-52
2022/07/25 00:59:06;;;;;;;8.60;7.35;;;23.10;92.60;;;;;;5052280;28;20031;-51
2022/07/25 01:01:31;;;;;;;9.57;7.28;;;23.10;92.80;;;;;;5053914;28;20029;-47
2022/07/25 01:03:57;;;;;;;8.35;7.22;;;23.20;92.60;;;;;;5053757;28;20043;-45
2022/07/25 01:06:23;;;;;;;8.07;7.28;;;23.20;92.60;;;;;;5050494;28;20021;-50
2022/07/25 01:08:49;;;;;;;8.00;7.20;;;23.20;92.60;;;;;;5051338;28;20025;-49
2022/07/25 01:11:15;;;;;;;8.15;7.28;;;23.10;92.80;;;;;;5053940;28;20032;-51
2022/07/25 01:13:41;;;;;;;10.95;6.57;;;23.10;93.00;;;;;;5053484;28;20025;-47
2022/07/25 01:16:07;;;;;;;8.10;7.30;;;23.10;93.30;;;;;;5054032;28;20476;-48
2022/07/25 01:18:33;;;;;;;8.02;7.22;;;23.10;93.30;;;;;;5052871;28;20040;-49
2022/07/25 01:20:59;;;;;;;8.45;7.50;;;23.00;93.00;;;;;;5053491;28;20052;-49
2022/07/25 01:23:25;;;;;;;8.90;8.00;;;23.00;93.20;;;;;;5053611;28;20520;-46
2022/07/25 01:25:50;;;;;;;8.07;7.28;;;22.90;93.10;;;;;;5053518;28;20025;-48
2022/07/25 01:28:17;;;;;;;9.80;7.32;;;22.90;93.20;;;;;;5052718;28;20025;-49
2022/07/25 01:30:42;;;;;;;12.75;8.13;;;22.90;93.50;;;;;;5053755;28;20104;-47
2022/07/25 01:33:08;;;;;;;8.15;7.32;;;22.90;93.50;;;;;;5053194;28;20098;-46
2022/07/25 01:35:34;;;;;;;12.25;7.28;;;22.90;93.70;;;;;;5053825;28;20071;-52
2022/07/25 01:37:59;;;;;;;9.07;6.95;;;22.80;94.70;;;;;;5052679;28;20032;-42
2022/07/25 01:40:25;;;;;;;8.65;7.32;;;22.80;95.10;;;;;;5053483;28;20481;-46
2022/07/25 01:42:50;;;;;;;10.43;6.50;;;22.70;95.60;;;;;;5053601;28;20041;-47
2022/07/25 01:45:16;;;;;;;9.15;6.95;;;22.70;95.70;;;;;;5053189;28;20033;-47
2022/07/25 01:47:41;;;;;;;8.13;7.32;;;22.70;95.30;;;;;;5051755;28;20040;-50
2022/07/25 01:50:08;;;;;;;13.65;7.93;;;22.60;94.70;;;;;;5053229;28;20021;-44
2022/07/25 01:52:35;;;;;;;13.07;7.88;;;22.60;94.80;;;;;;5051809;28;20021;-46
2022/07/25 01:55:00;;;;;;;13.35;7.72;;;22.50;94.80;;;;;;5052800;28;20401;-45
2022/07/25 01:57:26;;;;;;;10.50;7.65;;;22.50;94.80;;;;;;5051622;28;20025;-45
2022/07/25 01:59:51;;;;;;;8.95;7.65;;;22.50;94.80;;;;;;5052992;28;20043;-45
2022/07/25 02:02:17;;;;;;;9.82;7.70;;;22.40;95.10;;;;;;5052786;28;20047;-48
2022/07/25 02:04:42;;;;;;;9.20;8.15;;;22.30;95.30;;;;;;5052267;28;20488;-51
2022/07/25 02:07:08;;;;;;;11.18;7.53;;;22.20;95.50;;;;;;5050120;28;20501;-50
2022/07/25 02:09:34;;;;;;;8.23;7.43;;;22.20;95.90;;;;;;5052638;28;20021;-49
2022/07/25 02:11:59;;;;;;;9.07;8.20;;;22.10;96.30;;;;;;5052242;28;20524;-47
2022/07/25 02:14:25;;;;;;;11.05;7.68;;;22.10;96.60;;;;;;5052406;28;20029;-48
2022/07/25 02:16:50;;;;;;;11.07;7.97;;;22.00;96.40;;;;;;5051920;28;20025;-46
2022/07/25 02:19:16;;;;;;;10.90;7.93;;;21.80;96.50;;;;;;5052119;28;20404;-47
2022/07/25 02:21:41;;;;;;;9.15;7.05;;;21.80;96.80;;;;;;5052408;28;20064;-50
2022/07/25 02:24:07;;;;;;;10.43;7.68;;;21.90;97.30;;;;;;5052250;28;20464;-51
2022/07/25 02:26:33;;;;;;;11.05;8.10;;;21.90;97.40;;;;;;5051889;28;20484;-48
2022/07/25 02:28:58;;;;;;;10.82;7.70;;;21.80;97.80;;;;;;5051520;28;20029;-50
2022/07/25 02:31:24;;;;;;;8.90;8.00;;;21.70;97.50;;;;;;5052224;28;20116;-48
2022/07/25 02:33:49;;;;;;;8.35;7.55;;;21.60;97.20;;;;;;5052103;28;20028;-47
2022/07/25 02:36:15;;;;;;;10.13;7.93;;;21.60;97.50;;;;;;5050852;28;20060;-46
2022/07/25 02:38:40;;;;;;;8.75;7.75;;;21.60;97.70;;;;;;5051031;28;20029;-48
2022/07/25 02:41:06;;;;;;;8.70;7.90;;;21.70;97.90;;;;;;5047067;28;20036;-47
2022/07/25 02:43:32;;;;;;;8.25;7.45;;;21.70;97.90;;;;;;5051856;28;20029;-47
2022/07/25 02:45:57;;;;;;;8.27;7.13;;;21.80;98.00;;;;;;5051968;28;20105;-50
2022/07/25 02:48:23;;;;;;;8.60;7.63;;;21.70;98.30;;;;;;5050728;28;20029;-51
2022/07/25 02:50:48;;;;;;;9.88;7.72;;;21.70;98.50;;;;;;5051848;28;20469;-50
2022/07/25 02:53:14;;;;;;;10.05;7.75;;;21.60;98.90;;;;;;5051618;28;20063;-51
2022/07/25 02:55:39;;;;;;;7.75;6.90;;;21.50;99.20;;;;;;5049834;28;20058;-46
2022/07/25 02:58:05;;;;;;;11.38;7.57;;;21.50;99.30;;;;;;5050886;28;20381;-46
2022/07/25 03:00:31;;;;;;;11.30;7.93;;;21.40;99.40;;;;;;5051945;28;20404;-46
2022/07/25 03:02:57;;;;;;;8.95;7.60;;;21.40;99.80;;;;;;5051570;28;20037;-46
2022/07/25 03:05:22;;;;;;;9.80;8.15;;;21.40;99.90;;;;;;5051839;28;20107;-45
2022/07/25 03:07:48;;;;;;;16.75;9.65;;;21.30;99.90;;;;;;5049625;28;20150;-50
2022/07/25 03:10:13;;;;;;;8.43;7.13;;;21.20;99.90;;;;;;5051320;28;20029;-46
2022/07/25 03:12:40;;;;;;;8.80;8.00;;;21.20;99.90;;;;;;5051456;28;20092;-46
2022/07/25 03:15:07;;;;;;;10.07;8.48;;;21.20;99.90;;;;;;5051269;28;20086;-53
2022/07/25 03:17:33;;;;;;;10.85;8.13;;;21.10;99.90;;;;;;5050991;28;20056;-48
2022/07/25 03:19:58;;;;;;;11.85;8.20;;;21.00;99.90;;;;;;5051450;28;20033;-50
2022/07/25 03:22:24;;;;;;;8.77;7.90;;;21.00;99.90;;;;;;5050899;28;20033;-47
2022/07/25 03:24:50;;;;;;;9.82;8.80;;;21.00;99.90;;;;;;5051437;28;20028;-47
2022/07/25 03:27:16;;;;;;;9.20;8.35;;;21.10;99.90;;;;;;5045886;28;20056;-47
2022/07/25 03:29:41;;;;;;;10.40;7.90;;;21.10;99.90;;;;;;5051402;28;20060;-45
2022/07/25 03:32:08;;;;;;;9.25;8.18;;;21.10;99.90;;;;;;5039410;28;20056;-47
2022/07/25 03:34:34;;;;;;;9.05;7.90;;;21.10;99.90;;;;;;5051448;28;20085;-46
2022/07/25 03:37:00;;;;;;;14.35;8.90;;;21.10;99.90;;;;;;5049313;28;20424;-46
2022/07/25 03:39:26;;;;;;;13.27;8.27;;;21.00;99.90;;;;;;5047426;28;20032;-47
2022/07/25 03:41:52;;;;;;;9.38;8.10;;;21.00;99.90;;;;;;5051357;28;20539;-44
2022/07/25 03:44:23;;;;;;;9.30;8.38;;;20.90;99.90;;;;;;5050937;28;20488;-47
2022/07/25 03:46:48;;;;;;;8.90;7.85;;;20.90;99.90;;;;;;5050935;28;20037;-48
2022/07/25 03:49:14;;;;;;;8.88;8.05;;;20.90;99.90;;;;;;5051101;28;20167;-46
2022/07/25 03:51:40;;;;;;;11.68;9.68;;;20.90;99.90;;;;;;5051260;28;20036;-51
2022/07/25 03:54:07;;;;;;;10.85;8.18;;;20.90;99.90;;;;;;5051197;28;20596;-48
2022/07/25 03:56:38;;;;;;;9.02;8.07;;;20.90;99.90;;;;;;5049015;28;20056;-50
2022/07/25 03:59:04;;;;;;;11.07;8.00;;;20.90;99.90;;;;;;5049017;28;20028;-48
2022/07/25 04:01:30;;;;;;;13.15;8.77;;;20.90;99.90;;;;;;5050942;28;20036;-50
2022/07/25 04:03:56;;;;;;;9.20;8.30;;;20.80;99.90;;;;;;5051204;28;20416;-47
2022/07/25 04:06:22;;;;;;;11.15;8.82;;;20.80;99.90;;;;;;5050914;28;20039;-48
2022/07/25 04:08:48;;;;;;;12.25;8.38;;;20.80;99.90;;;;;;5050412;28;20452;-46
2022/07/25 04:11:14;;;;;;;13.05;8.20;;;20.70;99.90;;;;;;5049526;28;20029;-46
2022/07/25 04:13:39;;;;;;;11.15;8.10;;;20.80;99.90;;;;;;5051422;28;20021;-49
2022/07/25 04:16:05;;;;;;;12.75;8.98;;;20.70;99.90;;;;;;5050900;28;20032;-48
2022/07/25 04:18:31;;;;;;;12.20;8.32;;;20.70;99.90;;;;;;5050174;28;20021;-47
2022/07/25 04:20:56;;;;;;;11.75;8.00;;;20.70;99.90;;;;;;5050890;28;20047;-47
2022/07/25 04:23:22;;;;;;;11.43;8.23;;;20.60;99.90;;;;;;5050096;28;20094;-47
2022/07/25 04:25:47;;;;;;;11.13;9.07;;;20.60;99.90;;;;;;5050817;28;20056;-51
2022/07/25 04:28:12;;;;;;;10.50;8.30;;;20.60;99.90;;;;;;5050345;28;20048;-46
2022/07/25 04:30:38;;;;;;;12.27;8.32;;;20.60;99.90;;;;;;5050970;28;20021;-48
2022/07/25 04:33:03;;;;;;;9.23;8.32;;;20.70;99.90;;;;;;5049387;28;20029;-50
2022/07/25 04:35:29;;;;;;;8.65;7.75;;;20.70;99.90;;;;;;5044941;28;20025;-46
2022/07/25 04:37:55;;;;;;;12.95;9.10;;;20.80;99.90;;;;;;5028674;22;20131;-46
2022/07/25 04:40:20;;;;;;;14.65;8.25;;;20.90;99.90;;;;;;4972401;28;20046;-46
2022/07/25 04:42:46;;;;;;;14.07;8.10;;;21.00;99.90;;;;;;4970970;28;20046;-51
2022/07/25 04:45:12;;;;;;;9.43;8.10;;;21.10;99.90;;;;;;4972359;28;20031;-46
2022/07/25 04:47:38;;;;;;;10.50;9.48;;;21.10;99.90;;;;;;4971163;28;20118;-45
2022/07/25 04:50:03;;;;;;;13.63;8.57;;;21.20;99.90;;;;;;4971029;28;20161;-46
2022/07/25 04:52:29;;;;;;;10.25;8.32;;;21.20;99.90;;;;;;4972060;28;20042;-46
2022/07/25 04:54:54;;;;;;;13.70;8.05;;;21.40;99.90;;;;;;4972198;28;20023;-48
2022/07/25 04:57:20;;;;;;;17.25;10.48;;;21.60;99.90;;;;;;4971360;28;20033;-45
2022/07/25 04:59:45;;;;;;;10.95;8.13;;;22.60;99.90;;;;;;4972134;28;20487;-44
2022/07/25 05:02:11;;;;;;;8.63;7.78;;;22.70;99.90;;;;;;4971944;28;20037;-50
2022/07/25 05:04:36;;;;;;;12.63;8.25;;;23.40;99.80;;;;;;4971089;28;20375;-47
2022/07/25 05:07:02;;;;;;;8.82;7.90;;;24.20;98.40;;;;;;4969760;28;20055;-47
2022/07/25 05:09:28;;;;;;;9.68;7.68;;;25.00;97.10;;;;;;4972001;28;20023;-48
2022/07/25 05:11:53;;;;;;;10.68;8.70;;;25.80;94.70;;;;;;4971844;28;20030;-51
2022/07/25 05:14:19;;;;;;;9.10;7.00;;;26.30;93.80;;;;;;4971924;28;20054;-48
2022/07/25 05:16:44;;;;;;;10.80;7.38;;;27.00;93.20;;;;;;4971645;28;20027;-43
2022/07/25 05:19:10;;;;;;;12.18;8.23;;;27.60;91.60;;;;;;4971308;28;20031;-47
2022/07/25 05:21:37;;;;;;;8.57;7.63;;;28.10;90.40;;;;;;4971732;28;20058;-44
2022/07/25 05:24:02;;;;;;;9.23;7.82;;;28.60;89.40;;;;;;4970417;28;20383;-47
2022/07/25 05:26:28;;;;;;;11.70;7.05;;;29.00;88.40;;;;;;4971627;28;20034;-50
2022/07/25 05:28:53;;;;;;;7.60;6.90;;;29.50;86.50;;;;;;4970772;28;20403;-45
2022/07/25 05:31:19;;;;;;;8.52;7.78;;;30.10;84.80;;;;;;4971437;28;20031;-44
2022/07/25 05:33:44;;;;;;;12.45;8.68;;;30.60;81.40;;;;;;4971342;28;20115;-51
2022/07/25 05:36:10;;;;;;;7.53;6.82;;;30.90;81.90;;;;;;4970392;28;21443;-49
2022/07/25 05:38:35;;;;;;;9.05;7.47;;;31.10;80.00;;;;;;4970537;28;20043;-49
2022/07/25 05:41:01;;;;;;;8.02;7.05;;;31.30;79.60;;;;;;4970947;28;20526;-47
2022/07/25 05:43:26;;;;;;;10.90;7.55;;;31.30;80.00;;;;;;4970746;28;20481;-49
2022/07/25 05:45:52;;;;;;;8.07;7.30;;;31.60;78.20;;;;;;4970859;28;20035;-49
2022/07/25 05:48:17;;;;;;;10.63;6.72;;;32.00;77.60;;;;;;4970165;28;20027;-46
2022/07/25 05:50:44;;;;;;;8.15;7.35;;;32.20;76.40;;;;;;4971390;28;20030;-50
2022/07/25 05:53:11;;;;;;;11.48;7.07;;;32.30;76.60;;;;;;4969231;28;20037;-45
2022/07/25 05:55:36;;;;;;;9.65;7.85;;;32.60;75.90;;;;;;4970591;28;20105;-47
2022/07/25 05:58:02;;;;;;;9.38;7.45;;;33.00;73.80;;;;;;4970060;28;20204;-46
2022/07/25 06:00:28;;;;;;;7.22;6.55;;;33.10;72.90;;;;;;4970552;28;20550;-49
2022/07/25 06:02:57;;;;;;;11.45;7.70;;;33.40;72.00;;;;;;4970610;28;20031;-48
2022/07/25 06:05:22;;;;;;;7.65;6.90;;;33.20;72.20;;;;;;4971183;28;20058;-45
2022/07/25 06:07:48;;;;;;;7.80;6.93;;;33.70;72.20;;;;;;4969614;28;20063;-52
2022/07/25 06:10:13;;;;;;;7.32;6.60;;;34.10;71.00;;;;;;4970432;28;20064;-44
2022/07/25 06:12:39;;;;;;;7.35;6.35;;;34.40;70.20;;;;;;4970399;28;20035;-45
2022/07/25 06:15:05;;;;;;;7.40;6.65;;;34.70;69.70;;;;;;4970955;28;20102;-51
2022/07/25 06:17:30;;;;;;;11.27;6.38;;;34.60;69.60;;;;;;4968858;28;20031;-46
2022/07/25 06:19:56;;;;;;;7.45;5.90;;;35.10;68.50;;;;;;4970784;28;20479;-46
2022/07/25 06:22:21;;;;;;;6.40;5.80;;;35.20;68.00;;;;;;4971016;28;20023;-47
2022/07/25 06:24:47;;;;;;;6.57;5.97;;;35.50;67.40;;;;;;4968961;28;20046;-45
2022/07/25 06:27:12;;;;;;;5.75;5.28;;;35.90;66.70;;;;;;4969971;28;20113;-47
2022/07/25 06:29:38;;;;;;;6.03;5.53;;;36.40;65.70;;;;;;4970811;28;20027;-46
2022/07/25 06:32:04;;;;;;;7.40;5.70;;;36.40;65.30;;;;;;4970855;28;20022;-46
2022/07/25 06:34:29;;;;;;;6.50;5.90;;;36.50;65.00;;;;;;4970591;28;20450;-47
2022/07/25 06:36:56;;;;;;;5.70;5.07;;;36.60;64.40;;;;;;4970699;28;20033;-45
2022/07/25 06:39:22;;;;;;;5.82;5.20;;;36.60;64.00;;;;;;4970357;28;20034;-48
2022/07/25 06:41:47;;;;;;;6.80;5.68;;;37.00;63.30;;;;;;4970507;28;20031;-47
2022/07/25 06:44:13;;;;;;;6.78;5.70;;;37.20;63.00;;;;;;4970620;28;20038;-47
2022/07/25 06:46:39;;;;;;;6.32;5.75;;;37.50;62.10;;;;;;4970412;28;20440;-48
2022/07/25 06:49:04;;;;;;;9.30;6.40;;;37.60;61.30;;;;;;4969723;28;20034;-45
2022/07/25 06:51:30;;;;;;;5.75;5.18;;;38.00;61.10;;;;;;4970594;28;20482;-49
2022/07/25 06:53:55;;;;;;;8.15;6.20;;;38.30;60.50;;;;;;4970744;28;20041;-45
2022/07/25 06:56:21;;;;;;;5.70;5.15;;;38.50;60.40;;;;;;4970014;28;20084;-45
2022/07/25 06:58:46;;;;;;;6.10;5.60;;;38.70;60.60;;;;;;4968030;28;20402;-45
2022/07/25 07:01:12;;;;;;;6.40;5.78;;;38.90;59.70;;;;;;4970885;28;20041;-45
2022/07/25 07:03:38;;;;;;;12.52;5.82;;;38.70;59.40;;;;;;4971251;28;20023;-44
2022/07/25 07:06:05;;;;;;;5.97;5.35;;;38.80;59.00;;;;;;4970678;28;20026;-45
2022/07/25 07:08:31;;;;;;;6.38;5.35;;;38.80;59.40;;;;;;4969321;28;20022;-49
2022/07/25 07:10:56;;;;;;;5.63;5.22;;;39.00;58.70;;;;;;4970454;28;20031;-48
2022/07/25 07:13:22;;;;;;;6.53;5.90;;;39.60;58.10;;;;;;4970350;28;20035;-51
2022/07/25 07:15:49;;;;;;;5.80;5.25;;;39.40;58.10;;;;;;4970227;28;20037;-47
2022/07/25 07:18:18;;;;;;;5.45;5.05;;;39.60;57.70;;;;;;4969338;28;20402;-51
2022/07/25 07:20:43;;;;;;;7.45;5.50;;;39.50;58.00;;;;;;4970182;28;20409;-46
2022/07/25 07:23:09;;;;;;;6.57;5.80;;;40.10;57.20;;;;;;4969017;28;20126;-50
2022/07/25 07:25:35;;;;;;;8.25;5.10;;;39.80;57.10;;;;;;4969003;28;20031;-46
2022/07/25 07:28:01;;;;;;;8.02;5.43;;;39.90;57.50;;;;;;4969242;28;20050;-50
2022/07/25 07:30:26;;;;;;;8.50;5.38;;;39.70;57.20;;;;;;4970111;28;20035;-47
2022/07/25 07:32:52;;;;;;;6.63;5.68;;;39.80;57.10;;;;;;4970176;28;20023;-46
2022/07/25 07:35:18;;;;;;;6.65;5.40;;;39.60;57.20;;;;;;4969932;28;20031;-46
2022/07/25 07:37:44;;;;;;;5.70;5.25;;;38.90;57.50;;;;;;4968983;28;20039;-46
2022/07/25 07:40:11;;;;;;;11.50;6.07;;;38.50;58.50;;;;;;4969899;28;20058;-47
2022/07/25 07:42:41;;;;;;;7.55;5.35;;;38.40;58.80;;;;;;4969667;28;20030;-47
2022/07/25 07:45:17;;;;;;;8.68;6.20;;;38.40;58.50;;;;;;4970567;28;20117;-48
2022/07/25 07:47:45;;;;;;;6.85;5.72;;;38.40;58.20;;;;;;4958295;28;20532;-48
2022/07/25 07:50:11;;;;;;;6.50;5.57;;;38.10;58.80;;;;;;4968640;28;20451;-47
2022/07/25 07:52:37;;;;;;;6.43;5.30;;;38.00;59.30;;;;;;4969184;28;20047;-52
2022/07/25 07:57:47;;;;;;;7.68;5.32;;;38.50;58.80;;;;;;4969062;28;20088;-48
2022/07/25 08:00:13;;;;;;;8.30;5.63;;;38.90;58.00;;;;;;4967194;28;20038;-51
2022/07/25 08:02:48;;;;;;;6.20;5.60;;;39.30;57.60;;;;;;4968735;28;20030;-48
2022/07/25 08:05:23;;;;;;;6.13;5.30;;;39.40;57.20;;;;;;4950456;28;20027;-49
2022/07/25 08:07:50;;;;;;;6.00;5.40;;;39.30;56.90;;;;;;4968459;28;20375;-50
2022/07/25 08:10:18;;;;;;;7.30;5.55;;;39.20;57.20;;;;;;4973027;28;20030;-49
2022/07/25 08:12:44;;;;;;;5.68;4.88;;;39.10;56.90;;;;;;4973453;28;20023;-51
2022/07/25 08:15:10;;;;;;;8.02;5.07;;;38.80;57.90;;;;;;4973005;28;20524;-51
2022/07/25 08:17:35;;;;;;;7.90;5.20;;;39.10;57.10;;;;;;4972086;28;20089;-47
2022/07/25 08:20:06;;;;;;;10.10;5.53;;;38.70;57.30;;;;;;4972826;28;20035;-49
2022/07/25 08:22:37;;;;;;;8.07;4.88;;;38.80;57.60;;;;;;4972878;28;20075;-50
2022/07/25 08:25:03;;;;;;;8.07;5.22;;;38.80;57.40;;;;;;4972484;28;20042;-48
2022/07/25 08:27:29;;;;;;;15.27;13.60;;;39.10;57.40;;;;;;4968353;28;20027;-48
2022/07/25 08:29:54;;;;;;;16.02;7.40;;;39.00;57.90;;;;;;4971412;28;20099;-45
2022/07/25 09:17:58;;;;;;;9.45;6.50;;;35.40;62.30;;;;;;5109055;27;20359;-47
2022/07/25 09:20:34;;;;;;;10.90;6.70;;;35.30;63.60;;;;;;5089580;28;20048;-47
2022/07/25 09:23:00;;;;;;;7.32;6.50;;;35.40;63.60;;;;;;5083481;28;20074;-51
2022/07/25 09:25:29;;;;;;;7.85;6.85;;;35.70;63.60;;;;;;5075028;28;20501;-47
2022/07/25 09:28:08;;;;;;;9.93;6.78;;;36.00;62.90;;;;;;5085699;28;20024;-50
2022/07/25 09:30:34;;;;;;;9.32;6.72;;;36.00;62.60;;;;;;5079234;28;20070;-54
2022/07/25 09:33:00;;;;;;;8.90;6.38;;;35.80;62.40;;;;;;5082028;28;20108;-51
2022/07/25 09:35:31;;;;;;;7.13;6.43;;;35.80;62.90;;;;;;5108678;28;20020;-47
2022/07/25 09:38:14;;;;;;;11.95;6.82;;;35.80;62.60;;;;;;5093551;28;20433;-50
2022/07/25 09:40:40;;;;;;;7.22;6.53;;;35.90;62.40;;;;;;5079418;28;20058;-48
2022/07/25 09:43:06;;;;;;;7.82;5.95;;;36.00;63.20;;;;;;5098277;28;20081;-51
2022/07/25 09:45:32;;;;;;;7.85;6.65;;;35.80;62.70;;;;;;5108563;28;20032;-49
2022/07/25 09:48:03;;;;;;;7.55;6.55;;;35.60;63.00;;;;;;5090652;28;20031;-47
2022/07/25 09:50:31;;;;;;;7.68;6.40;;;35.60;63.00;;;;;;5088103;28;20029;-48
2022/07/25 09:53:00;;;;;;;8.98;6.30;;;35.20;63.50;;;;;;5088612;28;20051;-48
2022/07/25 09:55:27;;;;;;;9.93;6.50;;;34.80;63.80;;;;;;5087499;28;20404;-48
2022/07/25 09:57:52;;;;;;;7.13;6.43;;;34.50;64.20;;;;;;5087735;28;20024;-50
2022/07/25 10:00:23;;;;;;;9.25;6.88;;;34.30;64.50;;;;;;5106242;28;20039;-48
2022/07/25 10:02:54;;;;;;;7.28;6.53;;;34.30;65.00;;;;;;5101389;28;20070;-51
2022/07/25 10:05:45;;;;;;;8.13;6.45;;;34.10;64.30;;;;;;5072335;28;20025;-49
2022/07/25 10:08:11;;;;;;;10.50;8.95;;;34.00;64.10;;;;;;5083198;28;20028;-48
2022/07/25 10:10:40;;;;;;;12.00;9.48;;;33.90;64.60;;;;;;5107407;28;20028;-48
2022/07/25 10:13:15;;;;;;;7.22;6.55;;;33.70;65.80;;;;;;5101546;28;20551;-48
2022/07/25 10:15:51;;;;;;;7.43;6.63;;;33.70;65.50;;;;;;5087552;28;20109;-50
2022/07/25 10:18:19;;;;;;;9.07;6.90;;;33.80;65.50;;;;;;5075218;28;20028;-48
2022/07/25 10:20:46;;;;;;;7.07;6.38;;;33.90;65.40;;;;;;5073869;28;20082;-50
2022/07/25 10:23:24;;;;;;;10.15;6.60;;;34.00;65.20;;;;;;5068251;28;20068;-50
2022/07/25 10:26:09;;;;;;;6.93;6.32;;;34.20;65.00;;;;;;5055765;28;20075;-52
2022/07/25 10:28:46;;;;;;;15.40;6.35;;;34.20;65.00;;;;;;5054040;28;20436;-49
2022/07/25 10:31:23;;;;;;;6.93;6.10;;;34.30;65.30;;;;;;5053771;28;20040;-50
2022/07/25 10:33:52;;;;;;;6.55;5.93;;;34.40;65.30;;;;;;5053715;28;20102;-50
2022/07/25 10:36:19;;;;;;;9.88;6.50;;;34.50;64.30;;;;;;5053370;28;20118;-49
2022/07/25 10:38:45;;;;;;;6.05;5.65;;;34.50;61.70;;;;;;5053652;28;20032;-53
2022/07/25 10:41:24;;;;;;;9.27;5.88;;;34.40;62.30;;;;;;5068468;28;20025;-52
2022/07/25 10:43:50;;;;;;;7.32;6.03;;;34.30;63.10;;;;;;5067527;28;20047;-49
2022/07/25 10:46:22;;;;;;;6.63;5.55;;;34.20;62.10;;;;;;5059790;28;20025;-52
2022/07/25 10:49:05;;;;;;;6.40;5.85;;;34.10;63.00;;;;;;5062849;28;20042;-49
2022/07/25 10:51:33;;;;;;;6.60;5.90;;;34.10;63.90;;;;;;5073185;28;20028;-47
2022/07/25 10:53:59;;;;;;;6.97;5.82;;;34.00;64.10;;;;;;5072012;28;20451;-50
2022/07/25 10:56:27;;;;;;;7.25;6.00;;;34.00;64.10;;;;;;5060900;28;20103;-51
2022/07/25 10:58:58;;;;;;;8.55;6.43;;;34.00;63.50;;;;;;5073207;28;20044;-49
2022/07/25 11:01:25;;;;;;;8.73;6.43;;;34.00;64.00;;;;;;5072961;28;20025;-47
2022/07/25 11:03:57;;;;;;;11.48;6.70;;;34.00;64.30;;;;;;5073076;28;20506;-51
2022/07/25 11:06:32;;;;;;;6.38;5.63;;;34.10;64.10;;;;;;5073082;28;20028;-50
2022/07/25 11:08:59;;;;;;;9.15;6.82;;;34.10;64.40;;;;;;5072685;28;20454;-53
2022/07/25 11:11:36;;;;;;;15.15;6.75;;;34.10;64.20;;;;;;5073347;28;20052;-47
2022/07/25 11:14:03;;;;;;;7.47;5.70;;;34.00;64.00;;;;;;5073270;28;20055;-48
2022/07/25 11:16:28;;;;;;;12.07;6.20;;;34.00;64.50;;;;;;5072646;28;20063;-48
2022/07/25 11:18:54;;;;;;;6.43;5.60;;;34.00;63.80;;;;;;5072907;28;20024;-51
2022/07/25 11:21:20;;;;;;;7.88;6.00;;;34.00;63.80;;;;;;5072667;28;20028;-47
2022/07/25 11:23:52;;;;;;;8.52;6.32;;;34.00;63.50;;;;;;5072818;28;20021;-47
2022/07/25 11:26:18;;;;;;;11.95;5.65;;;34.00;64.70;;;;;;5072688;28;20086;-48
2022/07/25 11:28:48;;;;;;;6.97;5.50;;;34.10;64.30;;;;;;5071616;28;20028;-48
2022/07/25 11:31:15;;;;;;;8.35;5.03;;;34.20;64.70;;;;;;5072806;28;20507;-47
2022/07/25 11:33:43;;;;;;;5.03;4.53;;;34.20;63.00;;;;;;5072347;28;20044;-48
2022/07/25 11:36:10;;;;;;;9.77;4.25;;;34.20;61.40;;;;;;5072340;28;20396;-52
2022/07/25 11:38:37;;;;;;;5.55;4.00;;;34.20;60.20;;;;;;5072039;28;20104;-49
2022/07/25 11:41:03;;;;;;;4.25;3.85;;;34.20;59.80;;;;;;5072563;28;20453;-50
2022/07/25 11:43:29;;;;;;;4.20;3.88;;;34.20;59.90;;;;;;5072498;28;20099;-46
2022/07/25 11:46:00;;;;;;;4.30;3.88;;;34.10;59.90;;;;;;5072554;28;20310;-49
2022/07/25 11:48:43;;;;;;;6.22;3.80;;;34.00;59.80;;;;;;5071646;28;20536;-48
2022/07/25 11:51:14;;;;;;;5.32;3.53;;;33.80;60.10;;;;;;5072413;28;20146;-48
2022/07/25 11:53:42;;;;;;;4.65;3.30;;;33.70;60.00;;;;;;5072276;28;20020;-48
2022/07/25 11:56:11;;;;;;;4.07;3.72;;;33.50;60.70;;;;;;5072050;28;20477;-52
2022/07/25 11:58:37;;;;;;;3.60;3.30;;;33.40;61.40;;;;;;5071543;28;20028;-47
2022/07/25 12:01:10;;;;;;;3.85;3.55;;;33.30;61.50;;;;;;5072247;28;20027;-50
2022/07/25 12:03:37;;;;;;;5.53;3.60;;;33.30;60.90;;;;;;5072058;28;20094;-49
2022/07/25 12:06:12;;;;;;;5.95;4.40;;;33.30;61.20;;;;;;5070654;28;20501;-48
2022/07/25 12:08:40;;;;;;;4.55;4.13;;;33.30;61.50;;;;;;5071425;28;20119;-47
2022/07/25 12:11:21;;;;;;;4.13;3.72;;;33.30;61.60;;;;;;5072069;28;20035;-48
2022/07/25 12:13:48;;;;;;;4.78;3.67;;;33.50;61.90;;;;;;5071960;28;20020;-48
2022/07/25 12:16:15;;;;;;;3.78;3.40;;;33.70;61.20;;;;;;5071695;28;20033;-48
2022/07/25 12:18:41;;;;;;;6.97;3.65;;;33.80;59.60;;;;;;5071152;28;20025;-49
2022/07/25 12:21:07;;;;;;;5.35;3.53;;;33.70;60.10;;;;;;5071858;28;20045;-48
2022/07/25 12:23:33;;;;;;;5.45;3.88;;;33.70;60.20;;;;;;5071757;28;20020;-46
2022/07/25 12:25:58;;;;;;;3.67;3.20;;;33.70;60.50;;;;;;5071593;28;20020;-49
2022/07/25 12:28:24;;;;;;;5.22;3.88;;;33.80;61.30;;;;;;5070039;28;20063;-46
2022/07/25 12:30:49;;;;;;;4.40;3.97;;;33.80;60.60;;;;;;5071414;28;20025;-51
2022/07/25 12:33:16;;;;;;;4.55;3.70;;;33.80;60.40;;;;;;5071534;28;20031;-48
2022/07/25 12:35:43;;;;;;;25.00;22.40;;;33.80;60.70;;;;;;5071567;28;20036;-47
2022/07/25 12:38:09;;;;;;;5.00;4.60;;;33.80;60.20;;;;;;5070899;28;20466;-46
2022/07/25 12:40:35;;;;;;;6.05;4.65;;;33.70;60.30;;;;;;5071129;28;20025;-48
2022/07/25 12:43:02;;;;;;;4.45;3.78;;;33.60;60.50;;;;;;5071276;28;20021;-47
2022/07/25 12:45:27;;;;;;;4.55;4.10;;;33.50;60.50;;;;;;5071483;28;20063;-48
2022/07/25 12:47:53;;;;;;;5.13;3.80;;;33.40;61.20;;;;;;5070997;28;20059;-46
2022/07/25 12:50:19;;;;;;;6.20;4.22;;;33.40;61.50;;;;;;5071345;28;20035;-48
2022/07/25 12:52:45;;;;;;;4.10;3.83;;;33.30;61.50;;;;;;5071891;28;20025;-51
2022/07/25 12:55:16;;;;;;;4.45;4.00;;;33.20;61.40;;;;;;5069358;28;20051;-50
2022/07/25 12:57:42;;;;;;;5.13;4.65;;;33.10;62.10;;;;;;5070409;28;20391;-46
2022/07/25 13:00:11;;;;;;;5.28;4.88;;;33.10;62.10;;;;;;5071065;28;20035;-48
2022/07/25 13:02:37;;;;;;;5.00;3.72;;;33.20;62.00;;;;;;5071371;28;20104;-50
2022/07/25 13:05:03;;;;;;;5.07;4.28;;;33.30;60.90;;;;;;5069259;28;20103;-49
2022/07/25 13:07:29;;;;;;;4.70;4.03;;;33.60;62.10;;;;;;5070849;28;20082;-47
2022/07/25 13:09:54;;;;;;;8.18;4.15;;;33.70;61.00;;;;;;5071375;28;20021;-51
2022/07/25 13:12:21;;;;;;;5.05;3.78;;;33.90;61.00;;;;;;5071081;28;20401;-47
2022/07/25 13:14:47;;;;;;;5.88;3.88;;;34.20;60.20;;;;;;5069960;28;20021;-48
2022/07/25 13:17:12;;;;;;;7.00;4.07;;;34.30;60.60;;;;;;5070368;28;20040;-46
2022/07/25 13:19:38;;;;;;;5.45;4.13;;;34.50;60.30;;;;;;5071113;28;20024;-49
2022/07/25 13:22:04;;;;;;;6.38;4.60;;;34.60;60.10;;;;;;5069896;28;20496;-49
2022/07/25 13:24:30;;;;;;;4.18;3.78;;;34.70;59.80;;;;;;5070846;28;20035;-50
2022/07/25 13:26:55;;;;;;;4.38;3.92;;;34.50;58.80;;;;;;5070605;28;20032;-52
2022/07/25 13:29:21;;;;;;;4.57;3.65;;;34.40;59.30;;;;;;5071109;28;20465;-50